Terminal Aerodrome Forecast
Issued by NWS

Current Version | Previous Version | Text Only | Print | Product List | Glossary On
Versions: 1 2 3 4 5 6 7 8 9 10 11 12 13 14 15 16 17
000 FTUS41 KILN 271744 TAFLUK TAF KLUK 271744Z 2718/2818 25006KT P6SM VCTS BKN035CB FM280000 VRB03KT P6SM BKN080 FM280500 00000KT P6SM VCSH BKN050 FM280900 16004KT 5SM -SHRA BR VCTS OVC025CB FM281400 20010KT P6SM BKN050=

USA.gov is the U.S. government's official web portal to all federal, state and local government web resources and services.